Sertosa Veintisiete — EAJZ — position and weather

sailwx.info

Track history (hours):
 
Tides and Currents Weather Stations Pressure Air Temp Water Temp Dewpoint Dewpoint Depression Visibility Wind Speed Wind Dir Waves Ship Positions

Sertosa Veintisiete

Last reported at 2016-Apr-28 20:28 UTC. Time now 2016-Apr-29 21:37 UTC.
Position N 36°11' W 005°24'.

Length 30 m; draft 5.5 m.

Type: Tug. MMSI: 224337000.

Date/timePositionNaut miles runAvg speedWind from/ knotsBaromVisibWave heightAir tempDewpointWater temp
2016-Apr-28 20:28N 36°11' W 005°24'1 0.0
2016-Apr-26 20:17N 36°10' W 005°23'0 0.0
2016-Apr-26 19:33N 36°10' W 005°23'0 0.0
2016-Apr-26 18:33N 36°10' W 005°23'1 0.4
2016-Apr-26 15:27N 36°11' W 005°24'0 0.4
2016-Apr-26 14:33N 36°11' W 005°24'0 0.0
2016-Apr-25 01:29N 36°11' W 005°24'0 0.0
2016-Apr-24 22:07N 36°11' W 005°24'1 1.3
2016-Apr-24 21:32N 36°10' W 005°25'1 0.7
2016-Apr-24 20:15N 36°11' W 005°24'1 0.2
2016-Apr-24 13:31N 36°10' W 005°23'0 0.0
2016-Apr-24 12:16N 36°10' W 005°23'1 0.0
2016-Apr-23 15:10N 36°11' W 005°24'1 0.5
2016-Apr-23 13:32N 36°10' W 005°23'0 0.0
2016-Apr-23 10:33N 36°10' W 005°23'1 1.2
2016-Apr-23 09:33N 36°11' W 005°24'0 0.0
2016-Apr-23 08:32N 36°11' W 005°24'1 0.1
2016-Apr-22 22:07N 36°10' W 005°23'0 0.0
2016-Apr-22 20:20N 36°10' W 005°23'1 0.3
2016-Apr-22 16:33N 36°11' W 005°24'0 0.0
2016-Apr-22 14:25N 36°11' W 005°24'1 0.7
2016-Apr-22 13:33N 36°11' W 005°24'1 0.6
2016-Apr-22 12:33N 36°11' W 005°24'0 0.0
2016-Apr-22 10:32N 36°11' W 005°24'0 0.1
2016-Apr-22 08:33N 36°11' W 005°24'1 0.9
2016-Apr-22 07:04N 36°09' W 005°24'1 0.2
2016-Apr-22 01:04N 36°11' W 005°24'0 0.9
2016-Apr-22 00:33N 36°10' W 005°24'0 0.4
2016-Apr-21 23:24N 36°11' W 005°24'0 0.0
2016-Apr-21 22:33N 36°11' W 005°24'0 0.0
2016-Apr-21 21:33N 36°11' W 005°24'0 0.1
2016-Apr-21 20:33N 36°11' W 005°24'1 0.1
2016-Apr-21 05:28N 36°10' W 005°23'3 3.4
2016-Apr-21 04:33N 36°08' W 005°26'3 0.3
2016-Apr-20 20:12N 36°11' W 005°24'1 0.0
2016-Apr-19 18:13N 36°10' W 005°23'  
Track history (hours):
 
Tides and Currents Weather Stations Pressure Air Temp Water Temp Dewpoint Dewpoint Depression Visibility Wind Speed Wind Dir Waves Ship Positions

Sertosa Veintisiete

Last reported at 2016-Apr-28 20:28 UTC. Time now 2016-Apr-29 21:37 UTC.
Position N 36°11' W 005°24'.

Length 30 m; draft 5.5 m.

Type: Tug. MMSI: 224337000.

Date/timePositionNaut miles runAvg speedWind from/ knotsBaromVisibWave heightAir tempDewpointWater temp
2016-Apr-28 20:28N 36°11' W 005°24'1 0.0
2016-Apr-26 20:17N 36°10' W 005°23'0 0.0
2016-Apr-26 19:33N 36°10' W 005°23'0 0.0
2016-Apr-26 18:33N 36°10' W 005°23'1 0.4
2016-Apr-26 15:27N 36°11' W 005°24'0 0.4
2016-Apr-26 14:33N 36°11' W 005°24'0 0.0
2016-Apr-25 01:29N 36°11' W 005°24'0 0.0
2016-Apr-24 22:07N 36°11' W 005°24'1 1.3
2016-Apr-24 21:32N 36°10' W 005°25'1 0.7
2016-Apr-24 20:15N 36°11' W 005°24'1 0.2
2016-Apr-24 13:31N 36°10' W 005°23'0 0.0
2016-Apr-24 12:16N 36°10' W 005°23'1 0.0
2016-Apr-23 15:10N 36°11' W 005°24'1 0.5
2016-Apr-23 13:32N 36°10' W 005°23'0 0.0
2016-Apr-23 10:33N 36°10' W 005°23'1 1.2
2016-Apr-23 09:33N 36°11' W 005°24'0 0.0
2016-Apr-23 08:32N 36°11' W 005°24'1 0.1
2016-Apr-22 22:07N 36°10' W 005°23'0 0.0
2016-Apr-22 20:20N 36°10' W 005°23'1 0.3
2016-Apr-22 16:33N 36°11' W 005°24'0 0.0
2016-Apr-22 14:25N 36°11' W 005°24'1 0.7
2016-Apr-22 13:33N 36°11' W 005°24'1 0.6
2016-Apr-22 12:33N 36°11' W 005°24'0 0.0
2016-Apr-22 10:32N 36°11' W 005°24'0 0.1
2016-Apr-22 08:33N 36°11' W 005°24'1 0.9
2016-Apr-22 07:04N 36°09' W 005°24'1 0.2
2016-Apr-22 01:04N 36°11' W 005°24'0 0.9
2016-Apr-22 00:33N 36°10' W 005°24'0 0.4
2016-Apr-21 23:24N 36°11' W 005°24'0 0.0
2016-Apr-21 22:33N 36°11' W 005°24'0 0.0
2016-Apr-21 21:33N 36°11' W 005°24'0 0.1
2016-Apr-21 20:33N 36°11' W 005°24'1 0.1
2016-Apr-21 05:28N 36°10' W 005°23'3 3.4
2016-Apr-21 04:33N 36°08' W 005°26'3 0.3
2016-Apr-20 20:12N 36°11' W 005°24'1 0.0
2016-Apr-19 18:13N 36°10' W 005°23'  

Dump ship's entire track history